WetterOnline ( https://www.wetteronline.de )

Wetter aktuell Horstmar

Aktuelles Wetter: Ahaus (46m)

6-stündlich | Neueste Meldungen
Ortszeit Temperatur Wetter
So, 19.01. 13:00 5.9° C fast wolkenlos
So, 19.01. 7:00 1.2° C leicht bewölkt
So, 19.01. 1:00 2.2° C wolkig
Sa, 18.01. 19:00 2.9° C bewölkt
Sa, 18.01. 13:00 5.1° C bedeckt
Sa, 18.01. 7:00 3.7° C bedeckt
Sa, 18.01. 1:00 4.9° C wolkenlos
Fr, 17.01. 19:00 8.0° C bedeckt
Ortszeit Temperatur Wetter
So, 19.01. 16:00 5.8° C fast wolkenlos
So, 19.01. 15:50 5.8° C fast wolkenlos
So, 19.01. 15:40 5.7° C leicht bewölkt
So, 19.01. 15:30 6.1° C bedeckt
So, 19.01. 15:20 6.1° C bedeckt
So, 19.01. 15:10 6.2° C bedeckt
So, 19.01. 15:00 6.2° C bedeckt
So, 19.01. 14:30 6.3° C Sprühregen
So, 19.01. 14:00 6.3° C wolkig
So, 19.01. 13:30 6.0° C wolkenlos
So, 19.01. 13:00 5.9° C fast wolkenlos
Ortszeit Relative Feuchte Sichtweite
So, 19.01. 13:00 82% 28 km
So, 19.01. 7:00 98% 19 km
So, 19.01. 1:00 96% 15 km
Sa, 18.01. 19:00 90% 30 km
Sa, 18.01. 13:00 86% 12 km
Sa, 18.01. 7:00 89% 29 km
Sa, 18.01. 1:00 80% 35 km
Fr, 17.01. 19:00 95% 11 km
Ortszeit Relative Feuchte Sichtweite
So, 19.01. 16:00 83% 19 km
So, 19.01. 15:50 83% -
So, 19.01. 15:40 84% -
So, 19.01. 15:30 83% 21 km
So, 19.01. 15:20 83% -
So, 19.01. 15:10 83% -
So, 19.01. 15:00 82% 23 km
So, 19.01. 14:30 83% 17 km
So, 19.01. 14:00 79% 30 km
So, 19.01. 13:30 81% 26 km
So, 19.01. 13:00 82% 28 km
Ortszeit Niederschlagsmenge Niederschlagsart
So, 19.01. 13:00 0.1 l/m2 in 6 Std. Regen
So, 19.01. 7:00 1 l/m2 in 12 Std. Sprühregen
So, 19.01. 1:00 1 l/m2 in 6 Std. Regen
Sa, 18.01. 19:00 1 l/m2 in 12 Std. Regenschauer
Sa, 18.01. 13:00 0.1 l/m2 in 6 Std. Regen
Sa, 18.01. 7:00 0.0 l/m2 in 12 Std. -
Sa, 18.01. 1:00 0.0 l/m2 in 6 Std. -
Fr, 17.01. 19:00 1 l/m2 in 12 Std. Regen
Ortszeit Niederschlagsmenge Niederschlagsart
So, 19.01. 16:00 0.0 l/m2 in 1 Std. Sprühregen
So, 19.01. 15:50 keine Meldung -
So, 19.01. 15:40 keine Meldung -
So, 19.01. 15:30 0.0 l/m2 in 1 Std. -
So, 19.01. 15:20 keine Meldung -
So, 19.01. 15:10 keine Meldung -
So, 19.01. 15:00 0.1 l/m2 in 1 Std. Sprühregen
So, 19.01. 14:30 0.1 l/m2 in 1 Std. -
So, 19.01. 14:00 0.0 l/m2 in 1 Std. -
So, 19.01. 13:30 0.0 l/m2 in 1 Std. -
So, 19.01. 13:00 0.0 l/m2 in 1 Std. Regen
Ortszeit Stärke Spitze Richtung
km/h Bft. km/h Grad Sektor
So, 19.01. 13:00 17 3 30 340° N
So, 19.01. 7:00 14 3 22 280° W
So, 19.01. 1:00 13 3 33 260° W
Sa, 18.01. 19:00 13 3 31 250° W
Sa, 18.01. 13:00 22 4 40 240° SW
Sa, 18.01. 7:00 22 4 32 220° SW
Sa, 18.01. 1:00 18 3 54 230° SW
Fr, 17.01. 19:00 18 3 40 220° SW
Ortszeit Stärke Spitze Richtung
km/h Bft. km/h Grad Sektor
So, 19.01. 16:00 15 3 20 330° NW
So, 19.01. 15:50 15 3 - 330° NW
So, 19.01. 15:40 14 3 - 330° NW
So, 19.01. 15:30 17 3 20 330° NW
So, 19.01. 15:20 17 3 - 330° NW
So, 19.01. 15:10 17 3 - 330° NW
So, 19.01. 15:00 14 3 22 340° N
So, 19.01. 14:30 14 3 22 350° N
So, 19.01. 14:00 15 3 28 360° N
So, 19.01. 13:30 20 4 28 330° NW
So, 19.01. 13:00 17 3 30 340° N
Ortszeit Untergrenze Bedeckung Gattung
total tief tief mittel hoch
So, 19.01. 13:00 1050 m 1/8 1/8 - - -
So, 19.01. 7:00 1080 m 3/8 3/8 - - -
So, 19.01. 1:00 600 m 5/8 5/8 - - -
Sa, 18.01. 19:00 930 m 7/8 7/8 - - -
Sa, 18.01. 13:00 390 m 8/8 8/8 - - -
Sa, 18.01. 7:00 390 m 8/8 8/8 - - -
Sa, 18.01. 1:00 - 0/8 0/8 - - -
Fr, 17.01. 19:00 5700 m 8/8 8/8 - - -
Ortszeit Bedeckungsgrad in Achtel und Wolkenuntergrenze
So, 19.01. 16:00 1(1410m)
So, 19.01. 15:50 1(1410m)
So, 19.01. 15:40 3(1500m)
So, 19.01. 15:30 8(1500m)
So, 19.01. 15:20 8(1500m)
So, 19.01. 15:10 1(810m) 8(1440m)
So, 19.01. 15:00 5(840m) 8(1380m)
So, 19.01. 14:30 2(900m) 4(1200m) 8(1440m)
So, 19.01. 14:00 6(1410m) 6(1500m)
So, 19.01. 13:30 keine Wolken
So, 19.01. 13:00 1(1050m) 1(1470m)
Ortszeit Luftdruck NN (hPa) Tendenz (hPa in 3 Std.)
So, 19.01. 13:00 1039 + 2,3
So, 19.01. 7:00 1033 + 1,7
So, 19.01. 1:00 1030 + 1,6
Sa, 18.01. 19:00 1027 + 2,4
Sa, 18.01. 13:00 1024 + 0,9
Sa, 18.01. 7:00 1021 + 1,0
Sa, 18.01. 1:00 1019 + 2,4
Fr, 17.01. 19:00 1015 + 1,0
Ortszeit Luftdruck NN (hPa) Tendenz (hPa in 3 Std.)
So, 19.01. 16:00 1041 + 1,8
So, 19.01. 15:50 1041 keine Meldung
So, 19.01. 15:40 1041 keine Meldung
So, 19.01. 15:30 1040 + 1,9
So, 19.01. 15:20 1040 keine Meldung
So, 19.01. 15:10 1040 keine Meldung
So, 19.01. 15:00 1040 + 1,5
So, 19.01. 14:30 1040 + 1,4
So, 19.01. 14:00 1040 + 1,7
So, 19.01. 13:30 1039 + 1,7
So, 19.01. 13:00 1039 + 2,3
Ortszeit Schneehöhe (cm)
So, 19.01. 13:00 0
So, 19.01. 7:00 0
So, 19.01. 1:00 0
Sa, 18.01. 19:00 0
Sa, 18.01. 13:00 0
Sa, 18.01. 7:00 0
Sa, 18.01. 1:00 0
Fr, 17.01. 19:00 0
Ortszeit Schneehöhe (cm)
So, 19.01. 16:00 0
So, 19.01. 15:50 0
So, 19.01. 15:40 0
So, 19.01. 15:30 0
So, 19.01. 15:20 0
So, 19.01. 15:10 0
So, 19.01. 15:00 0
So, 19.01. 14:30 0
So, 19.01. 14:00 0
So, 19.01. 13:30 0
So, 19.01. 13:00 0
Link zu dieser Seite / Seite empfehlen

Das Wetter in ...